Time;durP1;ratioP1;P1;durP2;ratioP2;P2;SDS_P1;SDS_P2;PMS_P1;PMS_P2;Temp;Humidity;BMP_temperature;BMP_pressure;BME280_temperature;BME280_humidity;BME280_pressure;Samples;Min_cycle;Max_cycle;Signal;HPM_P1;HPM_P2
2021/11/16 00:00:41;;;;;;;13.15;11.18;;;18.50;65.50;;;;;;5037892;28;20037;-28
2021/11/16 00:03:07;;;;;;;11.40;9.88;;;18.50;65.50;;;;;;5037738;28;20029;-31
2021/11/16 00:05:33;;;;;;;11.05;9.88;;;18.50;65.40;;;;;;5037622;28;20030;-25
2021/11/16 00:07:58;;;;;;;12.10;9.93;;;18.60;65.30;;;;;;5037468;28;20452;-28
2021/11/16 00:10:24;;;;;;;10.32;9.23;;;18.50;65.40;;;;;;5037826;28;20025;-24
2021/11/16 00:12:50;;;;;;;11.85;9.68;;;18.50;65.30;;;;;;5053128;28;20017;-24
2021/11/16 00:15:16;;;;;;;10.40;9.00;;;18.50;65.50;;;;;;5037605;28;20025;-22
2021/11/16 00:17:42;;;;;;;9.23;8.23;;;18.50;65.30;;;;;;5037561;28;20032;-24
2021/11/16 00:20:12;;;;;;;10.98;8.88;;;18.50;65.40;;;;;;5037254;28;20446;-30
2021/11/16 00:22:39;;;;;;;10.52;8.80;;;18.50;65.40;;;;;;5037675;28;20089;-24
2021/11/16 00:25:10;;;;;;;9.75;8.75;;;18.50;65.40;;;;;;5036811;28;20035;-28
2021/11/16 00:27:36;;;;;;;9.35;8.45;;;18.40;65.30;;;;;;5037321;28;20032;-29
2021/11/16 00:30:02;;;;;;;9.18;8.13;;;18.50;65.20;;;;;;5037460;28;20053;-25
2021/11/16 00:32:28;;;;;;;9.40;7.97;;;18.50;65.10;;;;;;5037293;28;20025;-27
2021/11/16 00:34:53;;;;;;;9.63;7.97;;;18.50;65.40;;;;;;5037027;28;20033;-24
2021/11/16 00:37:28;;;;;;;9.27;8.27;;;18.40;65.30;;;;;;5037201;28;20028;-23
2021/11/16 00:39:58;;;;;;;9.38;8.38;;;18.40;65.20;;;;;;5037261;28;20041;-24
2021/11/16 00:42:23;;;;;;;8.20;7.40;;;18.40;65.90;;;;;;5037265;28;20486;-25
2021/11/16 00:44:49;;;;;;;8.52;7.72;;;18.40;65.20;;;;;;5037121;28;20107;-33
2021/11/16 00:47:15;;;;;;;8.77;7.88;;;18.40;65.20;;;;;;5036975;28;20087;-25
2021/11/16 00:49:40;;;;;;;9.98;7.78;;;18.40;65.20;;;;;;5036837;28;20025;-24
2021/11/16 00:52:06;;;;;;;9.45;7.85;;;18.40;65.30;;;;;;5036919;28;20018;-28
2021/11/16 00:54:32;;;;;;;9.65;8.15;;;18.40;65.30;;;;;;5037007;28;20045;-24
2021/11/16 00:56:58;;;;;;;7.65;6.90;;;18.40;65.30;;;;;;5036872;28;20475;-23
2021/11/16 00:59:23;;;;;;;8.10;7.30;;;18.40;65.20;;;;;;5036824;28;20022;-25
2021/11/16 01:01:49;;;;;;;8.52;7.65;;;18.40;65.30;;;;;;5036906;28;20018;-23
2021/11/16 01:04:15;;;;;;;9.32;7.35;;;18.40;65.20;;;;;;5036571;28;20025;-23
2021/11/16 01:06:41;;;;;;;7.80;7.00;;;18.40;65.30;;;;;;5035850;28;20029;-26
2021/11/16 01:09:07;;;;;;;7.22;6.53;;;18.40;65.10;;;;;;5036712;28;20498;-27
2021/11/16 01:11:33;;;;;;;7.50;6.80;;;18.40;65.10;;;;;;5036803;28;20018;-29
2021/11/16 01:13:58;;;;;;;7.90;7.10;;;18.40;65.10;;;;;;5036720;28;20014;-32
2021/11/16 01:16:24;;;;;;;8.15;6.93;;;18.30;65.10;;;;;;5036726;28;20022;-26
2021/11/16 01:18:50;;;;;;;7.15;6.45;;;18.30;65.20;;;;;;5036682;28;20040;-32
2021/11/16 01:21:15;;;;;;;7.15;6.45;;;18.30;65.10;;;;;;5036446;28;20102;-29
2021/11/16 01:23:41;;;;;;;6.82;6.22;;;18.30;65.00;;;;;;5036647;28;20028;-29
2021/11/16 01:26:06;;;;;;;7.13;6.50;;;18.30;64.90;;;;;;5036553;28;20052;-26
2021/11/16 01:28:32;;;;;;;6.78;5.97;;;18.30;65.10;;;;;;5036345;28;20037;-26
2021/11/16 01:31:02;;;;;;;7.07;6.45;;;18.30;65.00;;;;;;5036523;28;20371;-25
2021/11/16 01:33:29;;;;;;;6.82;6.22;;;18.30;65.10;;;;;;5036692;28;20440;-27
2021/11/16 01:35:55;;;;;;;7.30;6.63;;;18.30;65.10;;;;;;5036284;28;20030;-24
2021/11/16 01:38:23;;;;;;;7.15;6.45;;;18.30;65.10;;;;;;5036469;28;20434;-26
2021/11/16 01:40:49;;;;;;;6.30;5.80;;;18.20;65.00;;;;;;5036527;28;20032;-26
2021/11/16 01:43:15;;;;;;;6.68;6.18;;;18.20;65.20;;;;;;5036440;28;20026;-32
2021/11/16 01:45:41;;;;;;;6.15;5.75;;;18.30;65.00;;;;;;5036246;28;20050;-24
2021/11/16 01:48:07;;;;;;;5.97;5.47;;;18.30;65.10;;;;;;5036542;28;20120;-28
2021/11/16 01:50:33;;;;;;;6.05;5.53;;;18.20;65.00;;;;;;5035960;28;20029;-30
2021/11/16 01:52:59;;;;;;;6.88;6.28;;;18.20;65.00;;;;;;5036335;28;20437;-25
2021/11/16 01:55:25;;;;;;;6.30;5.80;;;18.30;65.00;;;;;;5036328;28;20022;-29
2021/11/16 01:57:51;;;;;;;6.55;5.95;;;18.30;64.90;;;;;;5036048;28;20029;-26
2021/11/16 02:00:20;;;;;;;5.10;4.75;;;18.30;64.90;;;;;;5036262;28;20060;-22
2021/11/16 02:02:46;;;;;;;6.10;5.60;;;18.30;64.90;;;;;;5036271;28;20029;-30
2021/11/16 02:05:12;;;;;;;6.45;5.95;;;18.20;64.90;;;;;;5035930;28;20033;-31
2021/11/16 02:07:46;;;;;;;5.43;5.03;;;18.30;64.80;;;;;;5036132;28;20413;-27
2021/11/16 02:10:12;;;;;;;6.00;5.50;;;18.30;64.80;;;;;;5050769;28;20132;-23
2021/11/16 02:12:38;;;;;;;5.85;5.35;;;18.30;64.70;;;;;;5036258;28;20057;-25
2021/11/16 02:15:08;;;;;;;5.85;5.35;;;18.30;64.60;;;;;;5036181;28;20191;-30
2021/11/16 02:17:34;;;;;;;6.07;5.55;;;18.30;64.70;;;;;;5037085;28;20079;-29
2021/11/16 02:19:59;;;;;;;5.68;5.25;;;18.30;64.50;;;;;;5039500;28;20026;-25
2021/11/16 02:22:25;;;;;;;5.60;5.10;;;18.20;64.60;;;;;;5055107;28;20068;-28
2021/11/16 02:24:51;;;;;;;5.68;5.18;;;18.30;64.60;;;;;;5039719;28;20116;-28
2021/11/16 02:27:16;;;;;;;5.63;5.13;;;18.30;64.60;;;;;;5039343;28;20082;-25
2021/11/16 02:29:42;;;;;;;5.20;4.80;;;18.30;64.50;;;;;;5039854;28;20033;-26
2021/11/16 02:32:08;;;;;;;4.95;4.55;;;18.30;64.50;;;;;;5039430;28;20018;-25
2021/11/16 02:34:33;;;;;;;5.57;5.18;;;18.30;64.70;;;;;;5039035;28;20030;-29
2021/11/16 02:36:59;;;;;;;5.28;4.78;;;18.30;64.60;;;;;;5039529;28;20064;-23
2021/11/16 02:39:25;;;;;;;4.88;4.57;;;18.30;64.40;;;;;;5039650;28;20026;-30
2021/11/16 02:41:52;;;;;;;4.65;4.35;;;18.30;64.40;;;;;;5039420;28;20030;-25
2021/11/16 02:44:20;;;;;;;5.65;5.15;;;18.30;64.40;;;;;;5039476;28;20108;-30
2021/11/16 02:46:46;;;;;;;5.95;5.45;;;18.30;64.50;;;;;;5039262;28;20049;-21
2021/11/16 02:49:11;;;;;;;5.22;4.82;;;18.30;64.40;;;;;;5039265;28;20108;-25
2021/11/16 02:51:38;;;;;;;5.45;5.05;;;18.20;64.50;;;;;;5038042;28;20107;-25
2021/11/16 02:54:13;;;;;;;4.97;4.57;;;18.20;64.50;;;;;;5039163;28;20017;-25
2021/11/16 02:56:39;;;;;;;4.90;4.57;;;18.20;64.50;;;;;;5039061;28;20029;-30
2021/11/16 02:59:04;;;;;;;5.10;4.70;;;18.20;64.60;;;;;;5039054;28;20105;-26
2021/11/16 03:01:30;;;;;;;4.65;4.35;;;18.30;64.30;;;;;;5038980;28;20064;-25
2021/11/16 03:03:56;;;;;;;5.50;5.10;;;18.20;64.20;;;;;;5038790;28;20024;-29
2021/11/16 03:06:21;;;;;;;4.90;4.60;;;18.20;64.20;;;;;;5038629;28;20026;-25
2021/11/16 03:08:47;;;;;;;4.60;4.30;;;18.20;64.30;;;;;;5038866;28;20018;-26
2021/11/16 03:11:13;;;;;;;4.85;4.45;;;18.20;64.30;;;;;;5039079;28;20021;-23
2021/11/16 03:13:39;;;;;;;5.10;4.70;;;18.20;64.30;;;;;;5038660;28;20502;-28
2021/11/16 03:16:10;;;;;;;4.57;4.28;;;18.30;64.20;;;;;;5038978;28;20083;-27
2021/11/16 03:18:36;;;;;;;4.57;4.28;;;18.20;64.40;;;;;;5038690;28;20032;-26
2021/11/16 03:21:02;;;;;;;4.45;4.15;;;18.20;64.40;;;;;;5038499;28;20108;-24
2021/11/16 03:23:27;;;;;;;4.43;4.13;;;18.20;64.40;;;;;;5038585;28;20025;-31
2021/11/16 03:25:56;;;;;;;4.57;4.28;;;18.20;64.40;;;;;;5038398;28;20505;-28
2021/11/16 03:28:23;;;;;;;4.60;4.30;;;18.20;64.20;;;;;;5038394;28;20032;-22
2021/11/16 03:30:51;;;;;;;4.43;4.13;;;18.20;64.20;;;;;;5037629;28;20540;-25
2021/11/16 03:33:18;;;;;;;4.57;4.28;;;18.20;64.20;;;;;;5038409;28;20032;-24
2021/11/16 03:35:44;;;;;;;4.15;3.85;;;18.20;64.20;;;;;;5038144;28;20060;-27
2021/11/16 03:38:10;;;;;;;4.60;4.30;;;18.20;64.20;;;;;;5038540;28;20105;-25
2021/11/16 03:40:36;;;;;;;4.47;4.18;;;18.20;64.20;;;;;;5038298;28;20029;-25
2021/11/16 03:43:02;;;;;;;4.20;4.00;;;18.20;64.10;;;;;;5038228;28;20018;-23
2021/11/16 03:45:28;;;;;;;4.15;3.95;;;18.20;64.20;;;;;;5038027;28;20053;-21
2021/11/16 03:47:55;;;;;;;4.28;3.97;;;18.10;64.30;;;;;;5038021;28;20029;-30
2021/11/16 03:50:24;;;;;;;4.05;3.80;;;18.10;64.50;;;;;;5037867;28;20023;-24
2021/11/16 03:52:53;;;;;;;3.83;3.63;;;18.10;64.30;;;;;;5037990;28;20113;-23
2021/11/16 03:55:19;;;;;;;4.47;4.18;;;18.20;64.30;;;;;;5038002;28;20025;-26
2021/11/16 03:57:45;;;;;;;4.13;3.92;;;18.10;64.40;;;;;;5037731;28;20029;-24
2021/11/16 04:00:14;;;;;;;4.30;4.00;;;18.10;64.40;;;;;;5037670;28;20040;-25
2021/11/16 04:02:40;;;;;;;4.25;3.95;;;18.10;64.40;;;;;;5038037;28;20096;-22
2021/11/16 04:05:06;;;;;;;4.60;4.30;;;18.10;64.40;;;;;;5037372;28;20021;-26
2021/11/16 04:07:32;;;;;;;4.25;4.03;;;18.10;64.50;;;;;;5037519;28;20026;-23
2021/11/16 04:09:58;;;;;;;4.35;4.00;;;18.10;64.40;;;;;;5037664;28;20025;-27
2021/11/16 04:12:23;;;;;;;4.65;4.35;;;18.10;64.40;;;;;;5033303;28;20052;-29
2021/11/16 04:14:49;;;;;;;4.00;3.80;;;18.10;64.30;;;;;;5037668;28;20100;-25
2021/11/16 04:17:15;;;;;;;3.50;3.30;;;18.10;64.30;;;;;;5037770;28;20552;-26
2021/11/16 04:19:42;;;;;;;3.95;3.75;;;18.10;64.40;;;;;;5035755;28;20032;-27
2021/11/16 04:22:08;;;;;;;3.85;3.63;;;18.10;64.50;;;;;;5037462;28;20021;-27
2021/11/16 04:24:34;;;;;;;3.88;3.60;;;18.10;64.40;;;;;;5037469;28;20032;-28
2021/11/16 04:26:59;;;;;;;3.97;3.78;;;18.10;64.40;;;;;;5037578;28;20021;-27
2021/11/16 04:29:25;;;;;;;3.97;3.67;;;18.00;64.40;;;;;;5037328;28;20021;-25
2021/11/16 04:31:51;;;;;;;3.67;3.45;;;18.00;64.40;;;;;;5037307;28;20025;-27
2021/11/16 04:34:17;;;;;;;4.03;3.72;;;18.00;64.30;;;;;;5036983;28;20048;-22
2021/11/16 04:36:43;;;;;;;3.65;3.45;;;18.00;64.30;;;;;;5037297;28;20405;-28
2021/11/16 04:39:09;;;;;;;3.80;3.60;;;18.00;64.40;;;;;;5037024;28;20025;-30
2021/11/16 04:41:36;;;;;;;4.03;3.75;;;18.00;64.40;;;;;;5036265;28;20116;-28
2021/11/16 04:44:04;;;;;;;3.78;3.47;;;18.00;64.40;;;;;;5037151;28;20112;-27
2021/11/16 04:46:30;;;;;;;3.58;3.38;;;18.00;64.40;;;;;;5036692;28;20041;-29
2021/11/16 04:51:47;;;;;;;3.53;3.33;;;18.00;64.40;;;;;;5036729;28;20024;-27
2021/11/16 05:05:01;;;;;;;3.20;3.00;;;18.00;64.20;;;;;;5036524;28;20449;-25
2021/11/16 05:07:29;;;;;;;3.38;3.17;;;18.00;64.30;;;;;;5036783;28;20088;-24
2021/11/16 05:09:56;;;;;;;3.38;3.17;;;18.00;64.30;;;;;;5036762;28;20033;-27
2021/11/16 05:12:23;;;;;;;3.00;2.90;;;18.10;64.20;;;;;;5036839;28;20144;-27
2021/11/16 05:14:49;;;;;;;2.90;2.70;;;18.00;64.10;;;;;;5036731;28;20029;-24
2021/11/16 05:17:15;;;;;;;3.30;3.10;;;18.00;64.20;;;;;;5036856;28;20045;-24
2021/11/16 05:19:41;;;;;;;3.17;2.97;;;18.00;64.20;;;;;;5036254;28;20429;-26
2021/11/16 05:22:06;;;;;;;2.92;2.80;;;18.00;64.20;;;;;;5036606;28;20021;-22
2021/11/16 05:24:32;;;;;;;3.25;3.05;;;18.00;64.10;;;;;;5036678;28;20014;-25
2021/11/16 05:26:58;;;;;;;3.08;2.88;;;18.10;64.10;;;;;;5036560;28;20026;-25
2021/11/16 05:29:23;;;;;;;2.97;2.78;;;18.00;64.00;;;;;;5036532;28;20067;-26
2021/11/16 05:31:49;;;;;;;3.42;3.22;;;18.00;64.10;;;;;;5036569;28;20091;-32
2021/11/16 05:34:15;;;;;;;3.50;3.30;;;18.00;64.10;;;;;;5036252;28;20029;-25
2021/11/16 05:36:41;;;;;;;3.60;3.40;;;18.00;64.00;;;;;;5036630;28;20471;-24
2021/11/16 05:39:06;;;;;;;3.13;2.92;;;18.00;64.10;;;;;;5036429;28;20048;-27
2021/11/16 05:41:33;;;;;;;2.45;2.35;;;18.00;64.00;;;;;;5036547;28;20036;-24
2021/11/16 05:43:59;;;;;;;3.40;3.20;;;18.00;64.10;;;;;;5036362;28;20029;-25
2021/11/16 05:46:25;;;;;;;3.33;3.13;;;18.00;64.10;;;;;;5036187;28;20065;-23
2021/11/16 05:48:51;;;;;;;2.90;2.70;;;18.00;64.10;;;;;;5029207;28;20101;-30
2021/11/16 05:51:18;;;;;;;3.22;3.08;;;18.00;64.10;;;;;;5034477;28;20611;-29
2021/11/16 05:53:46;;;;;;;2.58;2.47;;;18.00;64.00;;;;;;5056678;28;20102;-31
2021/11/16 05:56:12;;;;;;;2.88;2.78;;;18.00;64.00;;;;;;5058214;28;20409;-23
2021/11/16 05:58:41;;;;;;;3.10;2.90;;;18.00;64.90;;;;;;5048159;28;20060;-23
2021/11/16 06:01:07;;;;;;;2.80;2.70;;;18.00;64.10;;;;;;5050534;28;20034;-25
2021/11/16 06:03:33;;;;;;;2.83;2.70;;;18.00;64.20;;;;;;5042646;28;20022;-24
2021/11/16 06:05:58;;;;;;;2.90;2.80;;;18.00;64.20;;;;;;5039553;28;20091;-29
2021/11/16 06:08:26;;;;;;;3.08;2.88;;;18.00;64.90;;;;;;5039995;28;20429;-29
2021/11/16 06:10:52;;;;;;;3.00;2.80;;;18.00;64.50;;;;;;5040006;28;20021;-29
2021/11/16 06:13:17;;;;;;;2.90;2.70;;;18.00;64.40;;;;;;5040029;28;20033;-27
2021/11/16 06:15:43;;;;;;;3.20;3.00;;;18.00;64.70;;;;;;5039851;28;20022;-25
2021/11/16 06:18:09;;;;;;;3.20;3.00;;;17.90;65.20;;;;;;5039391;28;20025;-22
2021/11/16 06:20:34;;;;;;;3.50;3.30;;;17.90;65.40;;;;;;5038205;28;20034;-32
2021/11/16 06:23:00;;;;;;;2.95;2.75;;;17.90;65.30;;;;;;5054138;28;20387;-27
2021/11/16 06:25:26;;;;;;;3.75;3.45;;;17.80;65.40;;;;;;5037785;28;20060;-27
2021/11/16 06:27:51;;;;;;;3.42;3.10;;;17.90;65.40;;;;;;5037179;28;20064;-22
2021/11/16 06:30:17;;;;;;;3.38;3.08;;;17.90;65.40;;;;;;5038705;28;20092;-24
2021/11/16 06:32:43;;;;;;;4.07;3.10;;;17.90;65.70;;;;;;5029914;28;20498;-28
2021/11/16 06:35:15;;;;;;;3.40;3.20;;;17.90;65.40;;;;;;5019338;28;20072;-33
2021/11/16 06:37:41;;;;;;;3.33;2.72;;;17.90;65.40;;;;;;5032799;28;20025;-26
2021/11/16 06:40:07;;;;;;;3.38;2.97;;;17.90;65.30;;;;;;5034581;28;20034;-31
2021/11/16 06:42:32;;;;;;;3.30;3.05;;;17.90;65.50;;;;;;5026956;28;20037;-28
2021/11/16 06:44:58;;;;;;;3.28;2.97;;;17.90;65.70;;;;;;5028309;28;20054;-28
2021/11/16 06:47:24;;;;;;;3.35;3.15;;;17.90;65.70;;;;;;5029038;28;20441;-30
2021/11/16 06:49:51;;;;;;;3.30;3.05;;;17.80;66.10;;;;;;5028265;28;20036;-28
2021/11/16 06:52:17;;;;;;;4.13;3.35;;;17.80;66.20;;;;;;5038664;28;20036;-31
2021/11/16 06:54:42;;;;;;;4.50;3.40;;;17.80;65.90;;;;;;5038527;28;20026;-31
2021/11/16 06:57:08;;;;;;;4.00;2.88;;;17.80;66.10;;;;;;5037853;28;20018;-30
2021/11/16 06:59:34;;;;;;;5.53;4.03;;;17.80;66.10;;;;;;5038810;28;20081;-24
2021/11/16 07:01:59;;;;;;;2.90;2.70;;;17.90;65.70;;;;;;5039044;28;20051;-31
2021/11/16 07:04:33;;;;;;;5.03;3.40;;;18.00;65.40;;;;;;5037625;28;20051;-30
2021/11/16 07:06:59;;;;;;;2.58;2.47;;;18.00;65.20;;;;;;5053123;28;20021;-24
2021/11/16 07:09:25;;;;;;;3.55;3.35;;;18.00;65.10;;;;;;5054090;28;20037;-25
2021/11/16 07:11:52;;;;;;;3.75;3.00;;;18.00;65.00;;;;;;5027938;28;20072;-23
2021/11/16 07:14:30;;;;;;;3.10;2.90;;;18.00;65.00;;;;;;5020216;28;20056;-36
2021/11/16 07:16:57;;;;;;;2.67;2.47;;;17.90;65.40;;;;;;5025041;28;20041;-28
2021/11/16 07:19:30;;;;;;;3.80;2.95;;;17.80;65.70;;;;;;5024015;28;20584;-29
2021/11/16 07:21:56;;;;;;;2.95;2.72;;;17.80;65.90;;;;;;5023738;28;20067;-26
2021/11/16 07:24:26;;;;;;;3.05;2.85;;;17.70;65.90;;;;;;5024382;28;20076;-20
2021/11/16 07:26:59;;;;;;;3.35;2.70;;;17.90;65.70;;;;;;5024630;28;20030;-24
2021/11/16 07:29:33;;;;;;;3.10;2.80;;;17.90;65.70;;;;;;5022991;28;20049;-21
2021/11/16 07:31:59;;;;;;;2.53;2.42;;;17.80;65.90;;;;;;5024785;28;20033;-23
2021/11/16 07:34:25;;;;;;;5.00;3.22;;;17.80;65.90;;;;;;5024282;28;20048;-26
2021/11/16 07:36:56;;;;;;;3.25;2.95;;;17.80;65.80;;;;;;5039271;28;20033;-21
2021/11/16 07:39:22;;;;;;;2.75;2.60;;;17.80;65.90;;;;;;5022972;28;20129;-21
2021/11/16 07:41:49;;;;;;;2.83;2.70;;;17.80;65.90;;;;;;5024681;28;20037;-29
2021/11/16 07:44:16;;;;;;;3.10;2.90;;;17.90;65.90;;;;;;5035120;28;20065;-22
2021/11/16 07:46:50;;;;;;;2.85;2.50;;;17.90;65.50;;;;;;5037768;28;20077;-21
2021/11/16 07:49:16;;;;;;;3.00;2.78;;;17.90;65.80;;;;;;5037750;28;20528;-22
2021/11/16 07:51:42;;;;;;;2.65;2.45;;;17.90;65.70;;;;;;5038128;28;20022;-21
2021/11/16 07:54:07;;;;;;;9.00;2.92;;;17.80;66.00;;;;;;5035188;28;20044;-26
2021/11/16 07:56:33;;;;;;;3.47;2.97;;;18.00;66.00;;;;;;5034596;28;20052;-24
2021/11/16 07:59:05;;;;;;;2.85;2.65;;;17.90;66.30;;;;;;5037043;28;20025;-23
2021/11/16 08:01:57;;;;;;;3.00;2.80;;;17.90;65.80;;;;;;5037551;28;20052;-24
2021/11/16 08:09:50;;;;;;;3.47;2.90;;;18.00;65.40;;;;;;5015981;28;20045;-27
2021/11/16 08:14:44;;;;;;;2.47;2.30;;;18.00;65.10;;;;;;5037364;28;20029;-29
2021/11/16 08:17:10;;;;;;;2.90;2.70;;;18.10;65.10;;;;;;5037524;28;20075;-25
2021/11/16 08:19:37;;;;;;;2.47;2.38;;;18.10;65.00;;;;;;5036929;28;20029;-27
2021/11/16 08:22:13;;;;;;;2.72;2.53;;;18.10;65.10;;;;;;5037727;28;20033;-27
2021/11/16 08:24:41;;;;;;;3.33;3.13;;;18.10;65.00;;;;;;5037521;28;20100;-30
2021/11/16 08:27:21;;;;;;;2.85;2.65;;;18.10;64.90;;;;;;5037609;28;20033;-31
2021/11/16 08:29:51;;;;;;;3.20;2.90;;;18.10;64.90;;;;;;5035917;28;20029;-26
2021/11/16 08:32:22;;;;;;;3.15;2.95;;;18.10;64.90;;;;;;5052388;28;20021;-28
2021/11/16 08:34:53;;;;;;;2.55;2.45;;;18.10;64.80;;;;;;5052164;28;20053;-25
2021/11/16 08:37:19;;;;;;;2.80;2.60;;;18.10;64.90;;;;;;5037325;28;20026;-29
2021/11/16 08:39:50;;;;;;;2.85;2.65;;;18.10;65.00;;;;;;5037087;28;20060;-26
2021/11/16 08:42:27;;;;;;;6.88;2.95;;;18.10;65.00;;;;;;5052549;28;20022;-26
2021/11/16 08:45:01;;;;;;;3.05;2.85;;;18.10;65.00;;;;;;5036954;28;20493;-28
2021/11/16 08:47:30;;;;;;;2.92;2.72;;;18.10;64.90;;;;;;5037015;28;20125;-27
2021/11/16 08:49:56;;;;;;;2.83;2.63;;;18.10;64.90;;;;;;5036631;28;20040;-25
2021/11/16 08:52:25;;;;;;;4.50;3.10;;;18.10;64.70;;;;;;5037241;28;20097;-28
2021/11/16 08:55:00;;;;;;;5.72;2.85;;;18.10;64.90;;;;;;5037083;28;20033;-26
2021/11/16 08:57:27;;;;;;;4.07;2.80;;;18.10;65.00;;;;;;5037051;28;20470;-26
2021/11/16 08:59:53;;;;;;;2.88;2.63;;;18.10;64.90;;;;;;5036967;28;20499;-28
2021/11/16 09:02:20;;;;;;;4.60;2.63;;;18.10;65.00;;;;;;5036936;28;20092;-29
2021/11/16 09:04:46;;;;;;;3.28;2.97;;;18.00;64.80;;;;;;5036535;28;20022;-29
2021/11/16 09:07:29;;;;;;;2.90;2.78;;;18.00;64.90;;;;;;5036793;28;20017;-28
2021/11/16 09:10:03;;;;;;;2.80;2.60;;;18.10;65.00;;;;;;5036987;28;20022;-29
2021/11/16 09:12:41;;;;;;;2.70;2.50;;;18.00;65.00;;;;;;5036879;28;20026;-24
2021/11/16 09:15:07;;;;;;;2.83;2.63;;;18.00;65.00;;;;;;5036751;28;20017;-27
2021/11/16 09:17:33;;;;;;;2.78;2.58;;;18.00;65.00;;;;;;5036775;28;20522;-30
2021/11/16 09:20:23;;;;;;;2.90;2.67;;;18.00;65.00;;;;;;5036431;28;20049;-27
2021/11/16 09:22:49;;;;;;;2.80;2.60;;;18.00;65.00;;;;;;5036717;28;20533;-31
2021/11/16 09:25:20;;;;;;;2.72;2.53;;;18.00;65.10;;;;;;5036743;28;20049;-28
2021/11/16 09:27:46;;;;;;;3.20;2.58;;;18.00;65.10;;;;;;5038104;28;20033;-25
2021/11/16 09:30:13;;;;;;;3.40;3.20;;;18.00;65.10;;;;;;5040625;28;20025;-31
2021/11/16 09:32:58;;;;;;;2.60;2.40;;;18.00;65.00;;;;;;5040930;28;20032;-29
2021/11/16 09:35:43;;;;;;;4.47;2.40;;;18.00;65.00;;;;;;5040449;28;20025;-26
2021/11/16 09:38:09;;;;;;;2.47;2.38;;;18.00;65.00;;;;;;5040681;28;20025;-22
2021/11/16 09:40:35;;;;;;;2.78;2.60;;;17.90;65.80;;;;;;5040556;28;20029;-26
2021/11/16 09:43:01;;;;;;;3.15;2.95;;;18.00;65.10;;;;;;5040392;28;20041;-28
2021/11/16 09:45:27;;;;;;;2.65;2.55;;;18.00;65.10;;;;;;5040233;28;20057;-25
2021/11/16 09:47:53;;;;;;;2.90;2.70;;;17.90;65.10;;;;;;5055929;28;20124;-28
2021/11/16 09:50:23;;;;;;;2.40;2.30;;;17.90;65.10;;;;;;5055458;28;20018;-28
2021/11/16 09:52:49;;;;;;;2.67;2.58;;;17.90;65.00;;;;;;5040397;28;20021;-25
2021/11/16 09:55:21;;;;;;;2.85;2.65;;;17.90;65.00;;;;;;5040269;28;20025;-25
2021/11/16 09:57:58;;;;;;;2.63;2.42;;;17.90;65.00;;;;;;5040073;28;20029;-24
2021/11/16 10:00:34;;;;;;;2.78;2.60;;;17.90;65.10;;;;;;5039985;28;20125;-25
2021/11/16 10:02:59;;;;;;;2.75;2.42;;;17.90;65.00;;;;;;5040157;28;20113;-26
2021/11/16 10:05:26;;;;;;;2.80;2.60;;;17.90;65.00;;;;;;5039638;28;20049;-25
2021/11/16 10:07:59;;;;;;;2.22;2.13;;;17.90;65.00;;;;;;5039768;28;20109;-27
2021/11/16 10:10:27;;;;;;;2.70;2.50;;;17.90;65.00;;;;;;5040101;28;20498;-30
2021/11/16 10:12:54;;;;;;;2.50;2.40;;;17.90;65.00;;;;;;5039953;28;20021;-28
2021/11/16 10:15:25;;;;;;;2.67;2.58;;;17.90;65.00;;;;;;5039774;28;20034;-29
2021/11/16 10:17:51;;;;;;;2.72;2.60;;;17.90;65.00;;;;;;5039917;28;20021;-27
2021/11/16 10:20:19;;;;;;;2.63;2.42;;;17.90;65.00;;;;;;5039564;28;20032;-29
2021/11/16 10:22:49;;;;;;;2.55;2.35;;;17.90;64.90;;;;;;5039794;28;20029;-28
2021/11/16 10:25:16;;;;;;;2.50;2.40;;;17.90;64.90;;;;;;5039852;28;20280;-31
2021/11/16 10:27:43;;;;;;;2.65;2.45;;;17.90;65.00;;;;;;5039630;28;20086;-23
2021/11/16 10:30:12;;;;;;;2.50;2.40;;;17.90;65.00;;;;;;5039783;28;20041;-27
2021/11/16 10:32:39;;;;;;;2.90;2.70;;;17.90;65.00;;;;;;5039595;28;20026;-23
2021/11/16 10:35:23;;;;;;;2.90;2.80;;;17.90;65.00;;;;;;5039136;28;20437;-30
2021/11/16 10:37:56;;;;;;;3.22;2.80;;;17.90;64.90;;;;;;5039601;28;20395;-27
2021/11/16 10:40:24;;;;;;;2.30;2.20;;;17.90;64.80;;;;;;5039511;28;20429;-29
2021/11/16 10:42:52;;;;;;;2.05;1.95;;;17.90;64.90;;;;;;5039248;28;20494;-28
2021/11/16 10:45:20;;;;;;;2.50;2.40;;;17.90;64.90;;;;;;5039265;28;20053;-30
2021/11/16 10:47:46;;;;;;;2.95;2.75;;;17.90;64.80;;;;;;5039289;28;20068;-24
2021/11/16 10:50:15;;;;;;;2.70;2.50;;;17.80;64.80;;;;;;5039244;28;20029;-21
2021/11/16 10:52:41;;;;;;;2.92;2.20;;;17.90;64.80;;;;;;5039527;28;20075;-30
2021/11/16 10:55:07;;;;;;;2.63;2.42;;;17.80;64.70;;;;;;5039360;28;20021;-27
2021/11/16 10:58:05;;;;;;;2.58;2.38;;;17.80;65.60;;;;;;5039253;28;20068;-29
2021/11/16 11:00:45;;;;;;;2.38;2.28;;;17.80;64.80;;;;;;5030983;28;20029;-27
2021/11/16 11:03:35;;;;;;;2.30;2.20;;;17.80;64.80;;;;;;5038933;28;20036;-24
2021/11/16 11:06:07;;;;;;;2.80;2.60;;;17.80;64.80;;;;;;5033425;28;20509;-26
2021/11/16 11:08:36;;;;;;;2.35;2.25;;;17.80;64.80;;;;;;5038927;28;20041;-29
2021/11/16 11:11:03;;;;;;;2.58;2.38;;;17.80;64.80;;;;;;5039141;28;20454;-25
2021/11/16 11:13:30;;;;;;;2.60;2.50;;;17.80;64.80;;;;;;5038946;28;20077;-27
2021/11/16 11:15:56;;;;;;;2.20;2.10;;;17.80;64.70;;;;;;5038860;28;20033;-30
2021/11/16 11:18:38;;;;;;;2.35;2.25;;;17.80;64.80;;;;;;5038923;28;20034;-24
2021/11/16 11:21:06;;;;;;;2.10;2.00;;;17.80;64.70;;;;;;5038473;28;20553;-24
2021/11/16 11:23:43;;;;;;;2.40;2.30;;;17.80;65.50;;;;;;5038825;28;20141;-30
2021/11/16 11:26:28;;;;;;;2.47;2.38;;;17.80;64.80;;;;;;5052741;28;20036;-28
2021/11/16 11:29:04;;;;;;;2.75;2.58;;;17.80;65.50;;;;;;5038578;28;20040;-27
2021/11/16 11:31:30;;;;;;;2.50;2.40;;;17.80;64.80;;;;;;5038607;28;20029;-24
2021/11/16 11:33:55;;;;;;;2.30;2.20;;;17.70;65.00;;;;;;4670487;28;9999955;-28
2021/11/16 11:36:22;;;;;;;3.17;2.38;;;17.80;64.90;;;;;;5014751;28;20051;-22
2021/11/16 11:38:48;;;;;;;2.40;2.30;;;17.80;65.00;;;;;;5046557;28;20045;-23
2021/11/16 11:41:14;;;;;;;2.70;2.50;;;17.80;65.00;;;;;;5030174;28;20026;-27
2021/11/16 11:43:40;;;;;;;3.03;2.80;;;17.80;65.60;;;;;;5036830;28;20450;-28
2021/11/16 11:46:06;;;;;;;2.92;2.72;;;17.80;64.90;;;;;;5037238;28;20049;-27
2021/11/16 11:48:31;;;;;;;3.85;3.13;;;17.80;65.10;;;;;;5023833;28;20030;-24
2021/11/16 11:51:03;;;;;;;33.03;17.83;;;17.70;65.30;;;;;;5026521;28;20014;-29
2021/11/16 11:53:33;;;;;;;12.45;9.15;;;17.70;65.60;;;;;;5025721;28;20033;-22
2021/11/16 11:56:04;;;;;;;11.27;7.20;;;17.70;65.60;;;;;;5022872;28;20415;-21
2021/11/16 11:58:31;;;;;;;4.30;3.90;;;17.70;65.40;;;;;;5030973;28;20580;-28
2021/11/16 12:00:59;;;;;;;5.10;4.60;;;17.70;65.50;;;;;;5030978;28;20576;-24
2021/11/16 12:03:25;;;;;;;6.10;5.47;;;17.60;65.40;;;;;;5014240;28;20742;-26
2021/11/16 12:05:51;;;;;;;6.78;5.40;;;17.60;65.50;;;;;;5027145;28;20036;-30
2021/11/16 12:08:17;;;;;;;7.35;6.00;;;17.60;65.40;;;;;;5030663;28;20029;-23
2021/11/16 12:10:45;;;;;;;8.68;7.18;;;17.60;65.50;;;;;;5025599;28;20026;-29
2021/11/16 12:13:10;;;;;;;8.40;6.93;;;17.70;65.30;;;;;;5027303;28;20097;-28
2021/11/16 12:15:41;;;;;;;15.75;9.90;;;17.80;65.00;;;;;;5020605;28;20029;-30
2021/11/16 12:18:07;;;;;;;14.77;8.80;;;17.90;65.00;;;;;;5063942;28;20085;-26
2021/11/16 12:20:40;;;;;;;19.17;10.50;;;17.90;64.90;;;;;;5032702;28;20025;-23
2021/11/16 12:23:16;;;;;;;23.63;11.73;;;17.90;65.00;;;;;;5017160;28;20077;-26
2021/11/16 12:25:42;;;;;;;23.33;12.82;;;17.90;65.00;;;;;;5022227;28;20030;-20
2021/11/16 12:28:24;;;;;;;21.13;12.88;;;17.90;65.40;;;;;;5020729;28;20709;-26
2021/11/16 12:30:50;;;;;;;22.95;14.73;;;17.90;65.50;;;;;;5046873;28;20025;-24
2021/11/16 12:33:45;;;;;;;24.90;13.82;;;17.90;65.50;;;;;;5029452;28;20080;-22
2021/11/16 12:36:13;;;;;;;21.88;12.80;;;18.00;65.80;;;;;;5035490;28;20071;-27
2021/11/16 12:38:41;;;;;;;22.92;13.38;;;17.90;65.60;;;;;;5068785;28;20040;-28
2021/11/16 12:41:40;;;;;;;22.95;13.70;;;17.90;65.90;;;;;;5029604;28;20030;-25
2021/11/16 12:44:19;;;;;;;20.83;13.90;;;17.90;66.00;;;;;;5021282;28;20061;-29
2021/11/16 12:46:46;;;;;;;23.88;13.23;;;17.90;66.20;;;;;;5023639;28;20048;-26
2021/11/16 12:49:34;;;;;;;25.33;12.40;;;17.90;66.10;;;;;;5030528;28;20063;-24
2021/11/16 12:52:01;;;;;;;21.80;12.57;;;17.90;66.10;;;;;;5056416;28;20090;-22
2021/11/16 12:54:29;;;;;;;21.30;12.48;;;17.90;66.00;;;;;;5056813;28;20100;-26
2021/11/16 12:56:59;;;;;;;23.23;13.32;;;18.00;65.90;;;;;;5042552;28;20029;-25
2021/11/16 12:59:44;;;;;;;22.55;12.90;;;18.00;66.10;;;;;;5030989;28;20038;-21
2021/11/16 13:02:34;;;;;;;21.08;13.05;;;18.00;66.00;;;;;;4692316;28;9999714;-27
2021/11/16 13:05:10;;;;;;;19.52;12.35;;;17.90;66.00;;;;;;5052694;28;20508;-28
2021/11/16 13:07:44;;;;;;;22.02;12.48;;;18.00;65.90;;;;;;5036322;28;20033;-25
2021/11/16 13:10:15;;;;;;;18.92;11.70;;;18.00;65.80;;;;;;5064493;28;20109;-25
2021/11/16 13:12:44;;;;;;;17.73;10.93;;;18.10;65.70;;;;;;5025078;28;20025;-26